createdAt,value
2023-03-21T00:02:30.591Z,12.20
2023-03-21T00:07:32.575Z,11.80
2023-03-21T00:12:36.126Z,12.23
2023-03-21T00:17:38.195Z,14.63
2023-03-21T00:22:40.300Z,12.53
2023-03-21T00:33:19.827Z,15.17
2023-03-21T00:38:27.955Z,12.57
2023-03-21T00:43:31.330Z,14.00
2023-03-21T00:48:33.825Z,18.23
2023-03-21T00:53:35.948Z,20.07
2023-03-21T00:58:39.379Z,15.13
2023-03-21T01:03:41.424Z,18.37
2023-03-21T01:08:52.314Z,21.13
2023-03-21T01:14:10.872Z,17.23
2023-03-21T01:19:27.512Z,21.80
2023-03-21T01:24:37.613Z,20.03
2023-03-21T01:29:41.210Z,20.53
2023-03-21T01:34:43.357Z,20.87
2023-03-21T01:39:46.623Z,25.30
2023-03-21T01:44:55.918Z,21.30
2023-03-21T01:50:01.256Z,24.00
2023-03-21T01:55:04.699Z,21.73
2023-03-21T02:00:10.263Z,25.33
2023-03-21T02:05:12.390Z,28.80
2023-03-21T02:10:17.055Z,23.97
2023-03-21T02:15:20.915Z,22.73
2023-03-21T02:20:47.066Z,18.70
2023-03-21T02:26:21.374Z,21.57
2023-03-21T02:31:41.599Z,19.93
2023-03-21T02:36:56.048Z,20.43
2023-03-21T02:42:07.937Z,18.10
2023-03-21T02:47:14.541Z,21.00
2023-03-21T02:52:37.295Z,24.10
2023-03-21T02:57:46.684Z,17.93
2023-03-21T03:02:54.630Z,21.90
2023-03-21T03:08:15.205Z,20.90
2023-03-21T03:13:31.266Z,20.03
2023-03-21T03:18:46.676Z,20.00
2023-03-21T03:23:53.698Z,20.57
2023-03-21T03:29:01.008Z,20.57
2023-03-21T03:34:06.715Z,24.33
2023-03-21T03:39:13.823Z,20.33
2023-03-21T03:44:16.552Z,20.70
2023-03-21T03:49:22.572Z,29.27
2023-03-21T03:54:30.333Z,21.90
2023-03-21T03:59:34.690Z,21.70
2023-03-21T04:04:36.957Z,23.30
2023-03-21T04:09:44.464Z,23.33
2023-03-21T04:14:47.616Z,19.10
2023-03-21T04:19:51.989Z,19.50
2023-03-21T04:24:57.176Z,22.83
2023-03-21T04:29:59.781Z,23.57
2023-03-21T04:35:01.934Z,20.03
2023-03-21T04:40:06.495Z,18.40
2023-03-21T04:45:12.406Z,23.97
2023-03-21T04:50:14.824Z,22.13
2023-03-21T04:55:21.574Z,24.23
2023-03-21T05:00:24.223Z,18.33
2023-03-21T05:05:25.909Z,24.80
2023-03-21T05:10:29.593Z,25.87
2023-03-21T05:15:31.376Z,27.30
2023-03-21T05:20:36.119Z,25.63
2023-03-21T05:25:40.351Z,23.13
2023-03-21T05:30:42.741Z,26.67
2023-03-21T05:35:44.875Z,22.50
2023-03-21T05:40:49.486Z,29.13
2023-03-21T05:45:59.176Z,26.93
2023-03-21T05:51:01.358Z,27.97
2023-03-21T05:56:06.068Z,26.93
2023-03-21T06:01:08.314Z,32.33
2023-03-21T06:06:10.831Z,31.10
2023-03-21T06:11:23.615Z,29.87
2023-03-21T06:16:25.924Z,26.43
2023-03-21T06:21:28.231Z,28.33
2023-03-21T06:26:31.654Z,33.87
2023-03-21T06:31:33.982Z,29.93
2023-03-21T06:36:35.816Z,29.43
2023-03-21T06:41:39.412Z,30.60
2023-03-21T06:46:41.803Z,33.30
2023-03-21T06:51:43.957Z,30.33
2023-03-21T06:56:47.738Z,30.87
2023-03-21T07:01:49.897Z,30.23
2023-03-21T07:06:52.092Z,32.20
2023-03-21T07:11:55.475Z,32.20
2023-03-21T07:16:58.151Z,35.50
2023-03-21T07:22:00.196Z,31.17
2023-03-21T07:27:03.317Z,28.90
2023-03-21T07:32:05.040Z,37.43
2023-03-21T07:37:07.521Z,27.50
2023-03-21T07:42:11.247Z,33.30
2023-03-21T07:47:13.481Z,28.73
2023-03-21T07:52:15.593Z,26.40
2023-03-21T07:57:19.322Z,25.23
2023-03-21T08:02:21.506Z,27.63
2023-03-21T08:07:23.675Z,27.37
2023-03-21T08:12:27.632Z,23.23
2023-03-21T08:17:29.781Z,23.90
2023-03-21T08:22:33.568Z,25.20
2023-03-21T08:27:39.298Z,21.37
2023-03-21T08:32:41.893Z,23.20
2023-03-21T08:37:44.133Z,22.20
2023-03-21T08:42:47.770Z,20.00
2023-03-21T08:47:50.133Z,21.10
2023-03-21T08:52:52.677Z,18.70
2023-03-21T08:57:56.419Z,24.17
2023-03-21T09:02:59.027Z,24.57
2023-03-21T09:08:01.137Z,23.83
2023-03-21T09:13:05.538Z,20.30
2023-03-21T09:18:07.725Z,22.47
2023-03-21T09:23:10.157Z,17.97
2023-03-21T09:28:13.563Z,19.80
2023-03-21T09:33:15.709Z,21.13
2023-03-21T09:38:17.781Z,21.53
2023-03-21T09:43:36.910Z,16.17
2023-03-21T09:48:56.657Z,16.67
2023-03-21T09:54:03.415Z,18.10
2023-03-21T09:59:11.594Z,17.43
2023-03-21T10:04:15.657Z,16.40
2023-03-21T10:09:19.853Z,17.83
2023-03-21T10:14:28.149Z,18.23
2023-03-21T10:19:30.091Z,14.37
2023-03-21T10:24:34.681Z,14.13
2023-03-21T10:29:42.878Z,14.37
2023-03-21T10:34:48.319Z,14.63
2023-03-21T10:39:52.413Z,13.23
2023-03-21T10:44:57.379Z,15.37
2023-03-21T10:50:08.623Z,13.37
2023-03-21T10:55:20.375Z,13.57
2023-03-21T11:00:27.921Z,14.00
2023-03-21T11:05:37.553Z,13.57
2023-03-21T11:10:53.698Z,14.43
2023-03-21T11:16:03.798Z,11.80
2023-03-21T11:21:08.555Z,13.73
2023-03-21T11:26:17.026Z,9.13
2023-03-21T11:31:21.468Z,11.50
2023-03-21T11:36:34.937Z,11.97
2023-03-21T11:41:40.622Z,10.47
2023-03-21T11:46:43.883Z,11.73
2023-03-21T11:51:52.170Z,8.67
2023-03-21T11:57:01.243Z,11.67
2023-03-21T12:02:27.302Z,8.90
2023-03-21T12:07:46.124Z,8.67
2023-03-21T12:12:55.816Z,10.90
2023-03-21T12:18:06.485Z,7.70
2023-03-21T12:23:23.141Z,11.90
2023-03-21T12:28:39.122Z,9.40
2023-03-21T12:34:06.895Z,10.23
2023-03-21T12:39:19.687Z,9.27
2023-03-21T12:44:24.093Z,11.57
2023-03-21T12:49:33.049Z,9.83
2023-03-21T12:54:40.233Z,10.87
2023-03-21T12:59:49.388Z,9.33
2023-03-21T13:04:59.504Z,8.53
2023-03-21T13:10:11.838Z,9.30
2023-03-21T13:15:38.643Z,8.47
2023-03-21T13:20:46.615Z,7.57
2023-03-21T13:25:50.874Z,8.47
2023-03-21T13:30:53.690Z,6.50
2023-03-21T13:36:00.980Z,7.53
2023-03-21T13:41:08.884Z,5.67
2023-03-21T13:46:13.662Z,5.77
2023-03-21T13:51:37.787Z,6.47
2023-03-21T13:56:50.622Z,7.03
2023-03-21T14:02:03.857Z,7.27
2023-03-21T14:07:11.889Z,5.50
2023-03-21T14:12:17.194Z,4.93
2023-03-21T14:17:23.558Z,6.67
2023-03-21T14:22:27.710Z,8.10
2023-03-21T14:27:32.573Z,9.03
2023-03-21T14:32:35.644Z,13.97
2023-03-21T14:37:41.120Z,8.73
2023-03-21T14:42:47.431Z,8.20
2023-03-21T14:47:57.451Z,6.33
2023-03-21T14:53:01.141Z,5.80
2023-03-21T14:58:05.625Z,8.60
2023-03-21T15:03:11.534Z,8.23
2023-03-21T15:08:17.878Z,9.47
2023-03-21T15:13:23.029Z,7.27
2023-03-21T15:18:28.193Z,7.47
2023-03-21T15:23:35.134Z,7.20
2023-03-21T15:28:37.570Z,6.30
2023-03-21T15:33:39.929Z,6.00
2023-03-21T15:38:43.568Z,7.70
2023-03-21T15:43:46.887Z,7.23
2023-03-21T15:48:48.960Z,9.20
2023-03-21T15:53:53.822Z,10.83
2023-03-21T15:58:55.959Z,7.97
2023-03-21T16:04:02.396Z,8.50
2023-03-21T16:09:12.436Z,11.33
2023-03-21T16:14:14.637Z,9.90
2023-03-21T16:19:17.514Z,10.67
2023-03-21T16:24:21.029Z,10.23
2023-03-21T16:29:23.110Z,11.00
2023-03-21T16:34:25.348Z,9.90
2023-03-21T16:39:28.861Z,11.97
2023-03-21T16:44:31.066Z,11.73
2023-03-21T16:49:33.227Z,13.47
2023-03-21T16:54:36.696Z,11.23
2023-03-21T16:59:38.873Z,11.50
2023-03-21T17:04:40.994Z,10.70
2023-03-21T17:09:44.664Z,12.40
2023-03-21T17:14:46.887Z,11.70
2023-03-21T17:19:48.997Z,12.57
2023-03-21T17:24:52.605Z,10.17
2023-03-21T17:29:54.823Z,10.87
2023-03-21T17:34:56.843Z,12.10
2023-03-21T17:40:00.228Z,13.13
2023-03-21T17:45:02.357Z,10.80
2023-03-21T17:50:05.101Z,12.43
2023-03-21T17:55:08.716Z,10.97
2023-03-21T18:00:15.593Z,15.80
2023-03-21T18:05:18.584Z,14.37
2023-03-21T18:10:24.859Z,11.77
2023-03-21T18:15:30.313Z,8.57
2023-03-21T18:20:51.278Z,12.40
2023-03-21T18:25:56.123Z,10.27
2023-03-21T18:31:10.296Z,10.03
2023-03-21T18:36:16.603Z,10.60
2023-03-21T18:41:20.212Z,11.33
2023-03-21T18:46:23.072Z,12.77
2023-03-21T18:51:25.130Z,13.77
2023-03-21T18:57:20.064Z,11.40
2023-03-21T19:01:51.007Z,10.53
2023-03-21T19:06:53.495Z,11.30
2023-03-21T19:11:57.290Z,11.77
2023-03-21T19:17:47.485Z,11.20
2023-03-21T19:22:25.999Z,11.90
2023-03-21T19:27:30.007Z,13.13
2023-03-21T19:32:32.348Z,12.03
2023-03-21T19:37:35.347Z,9.93
2023-03-21T19:42:39.026Z,9.73
2023-03-21T19:47:41.338Z,9.53
2023-03-21T19:52:43.386Z,10.33
2023-03-21T19:57:48.628Z,11.50
2023-03-21T20:02:50.597Z,10.70
2023-03-21T20:07:53.396Z,12.90
2023-03-21T20:12:57.255Z,15.97
2023-03-21T20:17:58.952Z,15.10
2023-03-21T20:23:09.014Z,13.90
2023-03-21T20:28:22.586Z,13.83
2023-03-21T20:33:27.387Z,14.37
2023-03-21T20:38:30.036Z,15.20
2023-03-21T20:48:55.247Z,14.17
2023-03-21T20:53:57.210Z,15.30
2023-03-21T20:59:15.268Z,13.50
2023-03-21T21:04:19.648Z,15.93
2023-03-21T21:09:21.367Z,15.33
2023-03-21T21:14:24.896Z,16.23
2023-03-21T21:19:27.254Z,13.47
2023-03-21T21:24:29.435Z,11.60
2023-03-21T21:29:32.643Z,14.27
2023-03-21T21:34:34.908Z,11.97
2023-03-21T21:39:37.074Z,13.33
2023-03-21T21:44:41.011Z,15.80
2023-03-21T21:49:43.336Z,14.20
2023-03-21T21:54:45.613Z,15.43
2023-03-21T21:59:49.141Z,13.40
2023-03-21T22:04:54.332Z,13.67
2023-03-21T22:09:56.409Z,15.90
2023-03-21T22:15:00.104Z,14.33
2023-03-21T22:20:06.507Z,19.70
2023-03-21T22:25:11.620Z,15.30
2023-03-21T22:30:16.158Z,14.57
2023-03-21T22:35:18.136Z,17.10
2023-03-21T22:40:20.375Z,16.93
2023-03-21T22:45:23.508Z,16.23
2023-03-21T22:50:25.591Z,12.73
2023-03-21T22:55:27.729Z,19.17
2023-03-21T23:00:31.563Z,13.77
2023-03-21T23:05:33.613Z,13.37
2023-03-21T23:10:37.674Z,14.40
2023-03-21T23:15:41.545Z,14.80
2023-03-21T23:20:43.320Z,14.80
2023-03-21T23:25:45.033Z,13.70
2023-03-21T23:30:48.211Z,13.53
2023-03-21T23:35:50.226Z,13.10
2023-03-21T23:40:51.911Z,14.90
2023-03-21T23:45:56.530Z,10.83
2023-03-21T23:50:58.881Z,12.77
2023-03-21T23:56:00.587Z,13.07
